Time;durP1;ratioP1;P1;durP2;ratioP2;P2;SDS_P1;SDS_P2;PMS_P1;PMS_P2;Temp;Humidity;BMP_temperature;BMP_pressure;BME280_temperature;BME280_humidity;BME280_pressure;Samples;Min_cycle;Max_cycle;Signal;HPM_P1;HPM_P2
2022/10/03 00:00:59;;;;;;;5.75;1.17;;;12.10;70.00;;;;;;5091691;28;20043;-69
2022/10/03 00:03:41;;;;;;;5.95;1.70;;;12.10;70.00;;;;;;5074356;28;20040;-69
2022/10/03 00:06:24;;;;;;;5.15;1.63;;;12.10;70.10;;;;;;5078638;28;20543;-69
2022/10/03 00:09:08;;;;;;;4.57;1.10;;;12.10;70.10;;;;;;5090675;28;20036;-69
2022/10/03 00:11:44;;;;;;;7.05;2.42;;;12.10;70.10;;;;;;5079664;28;20044;-69
2022/10/03 00:14:25;;;;;;;5.35;1.48;;;12.00;70.10;;;;;;5074264;28;20071;-69
2022/10/03 00:17:00;;;;;;;5.47;1.23;;;12.00;70.10;;;;;;5091372;28;20519;-69
2022/10/03 00:20:03;;;;;;;5.22;1.25;;;12.00;70.10;;;;;;5091571;28;20391;-69
2022/10/03 00:22:56;;;;;;;8.73;1.63;;;12.00;70.10;;;;;;5084939;28;20048;-69
2022/10/03 00:25:30;;;;;;;6.65;1.40;;;12.00;70.10;;;;;;5089191;28;20072;-69
2022/10/03 00:28:23;;;;;;;6.68;1.70;;;12.00;70.10;;;;;;5090740;28;20056;-69
2022/10/03 00:31:02;;;;;;;8.20;2.05;;;12.00;70.10;;;;;;5091389;28;20559;-69
2022/10/03 00:33:50;;;;;;;7.53;1.50;;;12.00;70.10;;;;;;5091456;28;20039;-69
2022/10/03 00:36:55;;;;;;;5.15;1.23;;;12.00;70.10;;;;;;5075261;28;20165;-69
2022/10/03 00:39:35;;;;;;;7.20;1.33;;;12.00;70.00;;;;;;5064168;28;20048;-69
2022/10/03 00:42:16;;;;;;;5.43;1.20;;;11.90;70.00;;;;;;5091103;28;20115;-69
2022/10/03 00:45:01;;;;;;;8.73;1.25;;;11.90;70.00;;;;;;5078541;28;20081;-69
2022/10/03 00:47:49;;;;;;;5.03;0.90;;;11.90;70.10;;;;;;5090838;28;20087;-69
2022/10/03 00:50:52;;;;;;;6.32;1.13;;;11.90;70.10;;;;;;5094074;28;20054;-69
2022/10/03 00:53:41;;;;;;;6.13;1.20;;;11.90;70.10;;;;;;5094545;28;20039;-69
2022/10/03 00:56:14;;;;;;;4.13;1.02;;;11.90;70.20;;;;;;5094656;28;20051;-69
2022/10/03 00:59:04;;;;;;;7.47;1.90;;;11.80;70.20;;;;;;5077907;28;20047;-69
2022/10/03 01:01:30;;;;;;;5.63;1.13;;;11.90;70.30;;;;;;5094904;28;20475;-69
2022/10/03 01:04:11;;;;;;;4.28;1.23;;;11.80;70.30;;;;;;5094632;28;20051;-69
2022/10/03 01:07:12;;;;;;;6.45;1.20;;;11.80;70.40;;;;;;5078942;28;20090;-69
2022/10/03 01:09:56;;;;;;;3.88;1.20;;;11.80;70.30;;;;;;5094047;28;20036;-69
2022/10/03 01:12:46;;;;;;;5.25;1.33;;;11.80;70.40;;;;;;5094725;28;20372;-69
2022/10/03 01:15:44;;;;;;;6.93;1.50;;;11.80;70.50;;;;;;5068814;28;20056;-69
2022/10/03 01:18:21;;;;;;;7.15;1.60;;;11.70;70.40;;;;;;5007494;28;20477;-69
2022/10/03 01:20:52;;;;;;;5.18;0.90;;;11.70;70.40;;;;;;5094219;28;20075;-69
2022/10/03 01:23:23;;;;;;;4.68;0.88;;;11.70;70.50;;;;;;5094033;28;20134;-69
2022/10/03 01:25:51;;;;;;;5.72;1.30;;;11.70;70.60;;;;;;5076820;28;20039;-70
2022/10/03 01:31:36;;;;;;;5.57;1.50;;;11.70;70.50;;;;;;5097566;28;20509;-69
2022/10/03 01:34:26;;;;;;;6.18;1.40;;;11.70;70.60;;;;;;5096676;28;20070;-69
2022/10/03 01:37:15;;;;;;;6.97;1.48;;;11.70;70.60;;;;;;5096749;28;20038;-69
2022/10/03 01:40:07;;;;;;;7.88;1.40;;;11.60;70.50;;;;;;5080516;28;20441;-69
2022/10/03 01:43:00;;;;;;;8.25;1.90;;;11.60;70.50;;;;;;5097339;28;20047;-69
2022/10/03 01:45:50;;;;;;;6.63;1.75;;;11.50;70.40;;;;;;5095529;28;20079;-69
2022/10/03 01:48:37;;;;;;;5.75;1.17;;;11.60;70.60;;;;;;5080498;28;20506;-69
2022/10/03 01:51:10;;;;;;;7.18;2.10;;;11.50;70.70;;;;;;5084918;28;20034;-69
2022/10/03 01:53:49;;;;;;;4.97;1.38;;;11.50;70.80;;;;;;5094225;28;20058;-69
2022/10/03 01:56:33;;;;;;;3.75;0.88;;;11.50;70.90;;;;;;5077050;28;20043;-68
2022/10/03 01:59:07;;;;;;;3.85;1.13;;;11.40;70.80;;;;;;5092878;28;20043;-69
2022/10/03 02:01:49;;;;;;;3.17;0.93;;;11.40;70.90;;;;;;5080331;28;20047;-68
2022/10/03 02:04:34;;;;;;;4.88;1.00;;;11.40;71.00;;;;;;5102316;28;20036;-69
2022/10/03 02:07:32;;;;;;;3.60;1.02;;;11.40;71.00;;;;;;5096721;28;20048;-69
2022/10/03 02:10:19;;;;;;;7.30;1.23;;;11.40;71.00;;;;;;5092359;28;20047;-69
2022/10/03 02:13:11;;;;;;;6.22;1.75;;;11.30;70.90;;;;;;5097097;28;20093;-69
2022/10/03 02:15:42;;;;;;;5.63;1.67;;;11.30;70.90;;;;;;5080080;28;20372;-68
2022/10/03 02:18:22;;;;;;;5.85;1.17;;;11.30;70.90;;;;;;5099412;28;20070;-69
2022/10/03 02:21:13;;;;;;;4.60;1.00;;;11.30;70.90;;;;;;5096411;28;20110;-69
2022/10/03 02:23:44;;;;;;;5.45;1.60;;;11.20;70.90;;;;;;5096847;28;20040;-69
2022/10/03 02:26:47;;;;;;;3.78;1.25;;;11.30;71.00;;;;;;5095888;28;20062;-68
2022/10/03 02:29:12;;;;;;;5.22;1.42;;;11.20;70.90;;;;;;5085975;28;20051;-69
2022/10/03 02:32:29;;;;;;;4.85;1.08;;;11.20;70.90;;;;;;5096784;28;20075;-68
2022/10/03 02:35:09;;;;;;;5.03;1.20;;;11.20;71.00;;;;;;5040137;28;20062;-68
2022/10/03 02:37:56;;;;;;;4.72;1.33;;;11.20;71.10;;;;;;5111163;28;20171;-69
2022/10/03 02:40:30;;;;;;;2.50;0.80;;;11.20;71.10;;;;;;5104952;28;20075;-68
2022/10/03 02:43:11;;;;;;;3.78;1.10;;;11.20;71.20;;;;;;5096350;28;20044;-69
2022/10/03 02:45:55;;;;;;;3.50;1.05;;;11.20;71.20;;;;;;5095972;28;20120;-69
2022/10/03 02:48:35;;;;;;;4.38;1.50;;;11.20;71.20;;;;;;5096248;28;20039;-69
2022/10/03 02:51:13;;;;;;;7.13;2.03;;;11.20;71.20;;;;;;5095742;28;20048;-69
2022/10/03 02:54:14;;;;;;;6.07;1.27;;;11.20;71.20;;;;;;5095875;28;20035;-69
2022/10/03 02:57:01;;;;;;;5.25;1.35;;;11.20;71.20;;;;;;5078918;28;20042;-69
2022/10/03 02:59:52;;;;;;;5.50;1.60;;;11.20;71.20;;;;;;5078898;28;20475;-69
2022/10/03 03:03:15;;;;;;;5.80;1.25;;;11.10;71.10;;;;;;5086873;28;20044;-68
2022/10/03 03:06:15;;;;;;;2.78;0.80;;;11.10;71.10;;;;;;5014213;28;20037;-69
2022/10/03 03:08:59;;;;;;;2.47;0.82;;;11.10;71.10;;;;;;5095224;28;20047;-68
2022/10/03 03:11:58;;;;;;;3.63;0.82;;;11.10;71.10;;;;;;5095367;28;20061;-69
2022/10/03 03:14:42;;;;;;;4.10;0.90;;;11.10;71.20;;;;;;5095257;28;20475;-68
2022/10/03 03:17:29;;;;;;;5.93;0.90;;;11.10;71.20;;;;;;5110252;28;20047;-68
2022/10/03 03:20:33;;;;;;;3.72;1.08;;;11.10;71.40;;;;;;5095321;28;20028;-68
2022/10/03 03:23:17;;;;;;;4.63;1.15;;;11.10;71.10;;;;;;5095366;28;20486;-69
2022/10/03 03:26:04;;;;;;;2.83;1.00;;;11.10;71.10;;;;;;5077989;28;20039;-69
2022/10/03 03:29:12;;;;;;;6.40;1.58;;;11.10;71.20;;;;;;5075081;28;20071;-69
2022/10/03 03:32:00;;;;;;;4.10;1.00;;;11.10;71.20;;;;;;5062806;28;20407;-69
2022/10/03 03:34:41;;;;;;;4.65;0.90;;;11.10;71.20;;;;;;5092294;28;20369;-69
2022/10/03 03:37:19;;;;;;;4.60;0.90;;;11.10;71.20;;;;;;5092737;28;20043;-69
2022/10/03 03:40:11;;;;;;;3.53;0.80;;;11.10;71.10;;;;;;5095466;28;20469;-70
2022/10/03 03:42:44;;;;;;;2.47;0.60;;;11.10;71.50;;;;;;5076167;28;20040;-69
2022/10/03 03:45:33;;;;;;;4.35;0.80;;;11.10;71.10;;;;;;5077656;28;20035;-69
2022/10/03 03:48:21;;;;;;;3.05;0.95;;;11.10;71.10;;;;;;5082874;28;20255;-68
2022/10/03 03:50:56;;;;;;;6.05;1.23;;;11.10;71.10;;;;;;5085290;28;20036;-68
2022/10/03 03:53:36;;;;;;;5.90;1.20;;;11.00;71.00;;;;;;5094903;28;20036;-69
2022/10/03 03:56:10;;;;;;;4.85;1.17;;;11.10;71.10;;;;;;5095031;28;20364;-69
2022/10/03 03:58:53;;;;;;;4.28;1.17;;;11.00;71.10;;;;;;5094986;28;20039;-69
2022/10/03 04:01:30;;;;;;;3.78;1.00;;;11.00;71.10;;;;;;5096245;28;20054;-69
2022/10/03 04:04:11;;;;;;;4.13;1.00;;;11.10;71.40;;;;;;5100097;28;20486;-69
2022/10/03 04:07:13;;;;;;;3.75;0.70;;;11.00;71.20;;;;;;5094269;28;20050;-68
2022/10/03 04:10:05;;;;;;;4.10;0.77;;;11.00;71.10;;;;;;5094634;28;20520;-69
2022/10/03 04:13:09;;;;;;;2.65;0.70;;;11.00;71.20;;;;;;5094406;28;20051;-68
2022/10/03 04:16:13;;;;;;;4.85;1.30;;;11.00;71.20;;;;;;5077707;28;20047;-69
2022/10/03 04:19:06;;;;;;;3.60;0.60;;;11.00;71.30;;;;;;5087492;28;20043;-69
2022/10/03 04:21:44;;;;;;;2.40;0.77;;;10.90;71.20;;;;;;5090709;28;20035;-68
2022/10/03 04:24:42;;;;;;;3.13;0.60;;;10.90;71.30;;;;;;5076456;28;20606;-69
2022/10/03 04:27:17;;;;;;;2.03;0.57;;;10.90;71.30;;;;;;5079094;28;20059;-69
2022/10/03 04:29:55;;;;;;;;;;;10.90;71.30;;;;;;5098889;28;20044;-69
2022/10/03 04:32:55;;;;;;;2.28;0.68;;;10.90;71.00;;;;;;5075096;28;20333;-69
2022/10/03 04:35:33;;;;;;;4.85;0.77;;;10.90;71.30;;;;;;5098343;28;20131;-69
2022/10/03 04:38:31;;;;;;;2.63;0.68;;;10.90;71.30;;;;;;5096229;28;20043;-69
2022/10/03 04:41:22;;;;;;;3.55;0.90;;;10.90;71.20;;;;;;5098684;28;20044;-69
2022/10/03 04:43:54;;;;;;;3.67;1.15;;;10.90;71.10;;;;;;5097254;28;20386;-69
2022/10/03 04:46:57;;;;;;;2.67;0.90;;;10.90;71.10;;;;;;5081101;28;20118;-69
2022/10/03 04:49:41;;;;;;;4.95;0.73;;;10.80;70.90;;;;;;5098614;28;20437;-68
2022/10/03 04:52:44;;;;;;;3.13;0.90;;;10.80;70.90;;;;;;5098228;28;20066;-69
2022/10/03 04:55:32;;;;;;;2.95;0.82;;;10.90;70.90;;;;;;5096925;28;20173;-68
2022/10/03 04:58:13;;;;;;;3.63;0.90;;;10.80;70.90;;;;;;5093465;28;20096;-69
2022/10/03 05:01:07;;;;;;;2.88;0.60;;;10.80;70.80;;;;;;5096842;28;20040;-68
2022/10/03 05:03:44;;;;;;;3.05;0.50;;;10.80;70.80;;;;;;5097894;28;20066;-71
2022/10/03 05:06:25;;;;;;;4.97;0.80;;;10.80;70.80;;;;;;5097918;28;20044;-70
2022/10/03 05:09:04;;;;;;;2.03;0.60;;;10.80;70.80;;;;;;5097909;28;20036;-70
2022/10/03 05:11:39;;;;;;;3.10;0.70;;;10.80;70.80;;;;;;5073901;28;20424;-70
2022/10/03 05:14:04;;;;;;;;;;;10.80;70.70;;;;;;5078150;28;20044;-70
2022/10/03 05:17:02;;;;;;;3.65;0.90;;;10.80;70.50;;;;;;5092710;28;19923;-71
2022/10/03 05:19:57;;;;;;;3.28;1.05;;;10.80;70.60;;;;;;5088508;28;20406;-71
2022/10/03 05:22:32;;;;;;;2.72;0.90;;;10.70;70.60;;;;;;5074586;28;20494;-70
2022/10/03 05:25:20;;;;;;;3.30;1.08;;;10.70;70.60;;;;;;5080895;28;20495;-70
2022/10/03 05:27:50;;;;;;;3.83;1.15;;;10.80;70.60;;;;;;5082796;28;20056;-72
2022/10/03 05:30:34;;;;;;;6.15;1.48;;;10.70;70.60;;;;;;5073450;28;20056;-71
2022/10/03 05:33:13;;;;;;;4.32;1.58;;;10.70;70.60;;;;;;5067764;28;20043;-71
2022/10/03 05:35:49;;;;;;;3.83;1.48;;;10.70;70.50;;;;;;5087146;28;20041;-71
2022/10/03 05:38:15;;;;;;;3.33;1.02;;;10.70;70.50;;;;;;5071605;28;20123;-71
2022/10/03 05:41:19;;;;;;;4.00;1.20;;;10.60;70.40;;;;;;5057298;28;20480;-71
2022/10/03 05:43:57;;;;;;;2.90;0.73;;;10.70;70.40;;;;;;5053033;28;20053;-71
2022/10/03 05:46:46;;;;;;;6.32;1.27;;;10.60;70.50;;;;;;5056972;28;20047;-71
2022/10/03 05:49:37;;;;;;;3.30;1.00;;;10.60;70.50;;;;;;5087116;28;20149;-69
2022/10/03 05:52:15;;;;;;;3.78;1.02;;;10.60;70.50;;;;;;5059446;28;20110;-69
2022/10/03 05:55:08;;;;;;;2.55;0.80;;;10.50;70.60;;;;;;5053698;28;20127;-69
2022/10/03 05:58:13;;;;;;;3.03;1.02;;;10.60;70.70;;;;;;5083889;28;20055;-69
2022/10/03 06:01:17;;;;;;;1.88;0.88;;;10.50;70.60;;;;;;5074797;28;20051;-69
2022/10/03 06:04:14;;;;;;;2.25;0.90;;;10.50;70.70;;;;;;5084761;28;20040;-69
2022/10/03 06:06:49;;;;;;;2.33;1.00;;;10.50;70.90;;;;;;5077926;28;20086;-69
2022/10/03 06:09:37;;;;;;;4.43;0.93;;;10.40;70.90;;;;;;5088378;28;20491;-69
2022/10/03 06:12:24;;;;;;;1.08;0.60;;;10.40;71.00;;;;;;5093677;28;20071;-69
2022/10/03 06:15:13;;;;;;;3.88;1.13;;;10.40;71.20;;;;;;5075237;28;20150;-69
2022/10/03 06:17:52;;;;;;;4.68;1.25;;;10.40;71.30;;;;;;5089934;28;20058;-69
2022/10/03 06:20:45;;;;;;;4.38;1.02;;;10.40;71.40;;;;;;5073330;28;20395;-69
2022/10/03 06:23:50;;;;;;;4.45;1.52;;;10.40;71.70;;;;;;5073128;28;20528;-69
2022/10/03 06:26:53;;;;;;;3.35;1.25;;;10.40;71.50;;;;;;5078587;28;20053;-69
2022/10/03 06:29:48;;;;;;;5.93;1.20;;;10.40;71.70;;;;;;5062978;28;20404;-69
2022/10/03 06:32:41;;;;;;;4.80;1.10;;;10.30;71.80;;;;;;5074171;28;20041;-69
2022/10/03 06:35:32;;;;;;;3.38;1.10;;;10.30;71.80;;;;;;5092473;28;20055;-69
2022/10/03 06:38:12;;;;;;;3.70;1.23;;;10.30;72.10;;;;;;5056752;28;20044;-69
2022/10/03 06:41:08;;;;;;;4.40;1.13;;;10.40;72.30;;;;;;5093215;28;20392;-70
2022/10/03 06:43:33;;;;;;;;;;;10.30;72.50;;;;;;5089210;28;20400;-69
2022/10/03 06:46:19;;;;;;;3.17;0.95;;;10.30;72.30;;;;;;5075075;28;19916;-69
2022/10/03 06:48:57;;;;;;;4.47;1.40;;;10.40;72.70;;;;;;5085720;28;20044;-69
2022/10/03 06:51:50;;;;;;;5.10;1.10;;;10.40;73.00;;;;;;5072777;28;20040;-69
2022/10/03 06:54:37;;;;;;;4.82;1.02;;;10.40;73.20;;;;;;5081091;28;20093;-69
2022/10/03 06:57:22;;;;;;;2.97;0.85;;;10.40;73.40;;;;;;5082396;28;20032;-69
2022/10/03 07:00:08;;;;;;;4.38;1.40;;;10.40;73.50;;;;;;5072066;28;20040;-69
2022/10/03 07:02:49;;;;;;;4.43;1.05;;;10.40;73.60;;;;;;5056214;28;20040;-70
2022/10/03 07:05:52;;;;;;;8.85;1.25;;;10.50;73.80;;;;;;5060720;28;20045;-69
2022/10/03 07:09:12;;;;;;;5.28;1.40;;;10.50;74.00;;;;;;5089467;28;20083;-69
2022/10/03 07:12:03;;;;;;;5.95;1.30;;;10.50;74.10;;;;;;5014796;28;20049;-69
2022/10/03 07:14:54;;;;;;;9.57;1.83;;;10.60;74.50;;;;;;5061932;28;20517;-69
2022/10/03 07:17:25;;;;;;;4.97;1.17;;;10.60;74.90;;;;;;5052554;28;20554;-69
2022/10/03 07:20:34;;;;;;;5.80;1.42;;;10.60;75.10;;;;;;5082026;28;20044;-70
2022/10/03 07:23:28;;;;;;;5.65;1.50;;;10.70;75.50;;;;;;5065005;28;20051;-69
2022/10/03 07:26:15;;;;;;;7.10;1.42;;;10.70;75.70;;;;;;5091572;28;20052;-69
2022/10/03 07:29:05;;;;;;;7.75;1.70;;;10.80;76.00;;;;;;5074433;28;20048;-69
2022/10/03 07:31:42;;;;;;;9.23;2.17;;;10.80;76.40;;;;;;5067469;28;20032;-69
2022/10/03 07:34:23;;;;;;;8.35;2.20;;;10.90;76.70;;;;;;5088226;28;20068;-69
2022/10/03 07:40:39;;;;;;;6.65;1.92;;;11.00;77.20;;;;;;5081532;28;20048;-69
2022/10/03 07:43:23;;;;;;;11.70;2.42;;;11.10;77.40;;;;;;5036381;28;20132;-71
2022/10/03 07:46:10;;;;;;;11.15;3.45;;;11.10;77.40;;;;;;5084705;28;20044;-70
2022/10/03 07:49:04;;;;;;;10.85;3.10;;;11.20;77.80;;;;;;5072033;28;20049;-70
2022/10/03 07:51:30;;;;;;;5.75;2.20;;;11.30;78.20;;;;;;5079137;28;20741;-70
2022/10/03 07:54:18;;;;;;;11.43;3.00;;;11.30;78.20;;;;;;5072875;28;20127;-70
2022/10/03 07:57:09;;;;;;;12.13;3.65;;;11.40;78.80;;;;;;5072231;28;20048;-71
2022/10/03 08:00:10;;;;;;;12.88;2.80;;;11.50;79.40;;;;;;5070961;28;20492;-71
2022/10/03 08:03:07;;;;;;;6.22;2.33;;;11.70;80.30;;;;;;5059987;28;20555;-71
2022/10/03 08:06:08;;;;;;;5.90;1.83;;;11.90;81.20;;;;;;5071878;28;20072;-71
2022/10/03 08:08:49;;;;;;;7.93;2.10;;;12.30;82.10;;;;;;5071407;28;20492;-71
2022/10/03 08:11:56;;;;;;;7.63;1.77;;;12.60;82.40;;;;;;5072332;28;20036;-71
2022/10/03 08:14:40;;;;;;;6.85;1.35;;;13.00;82.50;;;;;;5014137;28;20045;-73
2022/10/03 08:17:41;;;;;;;8.13;1.65;;;13.40;82.00;;;;;;5048141;28;20109;-71
2022/10/03 08:20:19;;;;;;;6.78;1.40;;;13.80;81.10;;;;;;5013440;28;20115;-72
2022/10/03 08:23:12;;;;;;;6.18;1.33;;;14.20;79.90;;;;;;5091860;28;20163;-71
2022/10/03 08:25:59;;;;;;;7.05;1.55;;;14.60;78.60;;;;;;5082539;28;20036;-71
2022/10/03 08:29:08;;;;;;;9.57;1.88;;;14.90;77.50;;;;;;5064281;28;20470;-72
2022/10/03 08:32:16;;;;;;;6.53;1.02;;;15.30;75.70;;;;;;5089242;28;20051;-76
2022/10/03 08:35:05;;;;;;;7.60;1.33;;;15.60;74.70;;;;;;5091982;28;20036;-77
2022/10/03 08:37:55;;;;;;;5.85;1.23;;;15.80;73.90;;;;;;5087105;28;20032;-76
2022/10/03 08:41:11;;;;;;;7.88;2.10;;;16.10;73.10;;;;;;5091483;28;20085;-76
2022/10/03 08:43:59;;;;;;;7.88;1.40;;;16.30;72.50;;;;;;5092177;28;20043;-76
2022/10/03 08:46:49;;;;;;;6.47;1.58;;;16.60;71.60;;;;;;5091483;28;20043;-77
2022/10/03 08:49:18;;;;;;;9.20;1.60;;;16.80;70.70;;;;;;5091629;28;20047;-77
2022/10/03 08:52:20;;;;;;;7.13;1.75;;;17.00;70.30;;;;;;5091668;28;20074;-77
2022/10/03 08:54:54;;;;;;;8.95;2.03;;;17.30;68.80;;;;;;5091709;28;20057;-77
2022/10/03 08:57:38;;;;;;;;;;;17.50;68.30;;;;;;5074898;28;20032;-77
2022/10/03 09:00:15;;;;;;;9.50;1.10;;;17.60;69.00;;;;;;5079946;28;19922;-77
2022/10/03 09:02:49;;;;;;;6.28;1.80;;;17.80;68.20;;;;;;5091703;28;20506;-77
2022/10/03 09:05:36;;;;;;;7.13;1.33;;;18.00;67.20;;;;;;5091212;28;20529;-77
2022/10/03 09:08:34;;;;;;;4.78;1.25;;;18.20;66.00;;;;;;5090430;28;20062;-77
2022/10/03 09:11:19;;;;;;;6.07;1.45;;;18.30;65.00;;;;;;5080262;28;20067;-77
2022/10/03 09:14:10;;;;;;;8.52;1.50;;;18.50;64.50;;;;;;5095282;28;20040;-77
2022/10/03 09:17:01;;;;;;;5.88;1.50;;;18.60;63.90;;;;;;5094778;28;20388;-77
2022/10/03 09:20:10;;;;;;;5.93;1.40;;;18.70;63.50;;;;;;5095034;28;20403;-77
2022/10/03 09:22:45;;;;;;;6.60;1.48;;;18.90;62.80;;;;;;5094924;28;20503;-78
2022/10/03 09:25:18;;;;;;;6.25;1.10;;;19.00;61.80;;;;;;5095067;28;20040;-77
2022/10/03 09:28:02;;;;;;;5.55;0.98;;;19.10;61.30;;;;;;5090766;28;20091;-77
2022/10/03 09:30:31;;;;;;;6.90;1.45;;;19.20;60.80;;;;;;5082813;28;20630;-77
2022/10/03 09:33:21;;;;;;;4.53;0.90;;;19.30;60.20;;;;;;5080843;28;20067;-72
2022/10/03 09:35:58;;;;;;;5.43;1.13;;;19.30;59.50;;;;;;5061909;28;20055;-72
2022/10/03 09:38:35;;;;;;;7.10;1.38;;;19.40;59.10;;;;;;5054105;28;20551;-71
2022/10/03 09:41:32;;;;;;;6.18;1.10;;;19.40;58.80;;;;;;5053040;28;20537;-72
2022/10/03 09:44:29;;;;;;;6.80;1.83;;;19.40;58.20;;;;;;5074067;28;20040;-72
2022/10/03 09:47:22;;;;;;;5.47;1.13;;;19.40;58.30;;;;;;5068264;28;20048;-70
2022/10/03 09:50:18;;;;;;;5.15;1.33;;;19.40;58.50;;;;;;5066338;28;20081;-70
2022/10/03 09:53:01;;;;;;;5.20;1.08;;;19.40;58.50;;;;;;5069527;28;20488;-70
2022/10/03 09:55:41;;;;;;;7.00;1.45;;;19.40;58.20;;;;;;5069052;28;20037;-70
2022/10/03 09:58:53;;;;;;;6.75;2.15;;;19.30;58.30;;;;;;5069453;28;20361;-70
2022/10/03 10:01:43;;;;;;;5.28;0.80;;;19.30;58.70;;;;;;5039563;28;20055;-74
2022/10/03 10:04:32;;;;;;;5.88;1.17;;;19.20;59.00;;;;;;5052827;28;20547;-74
2022/10/03 10:07:36;;;;;;;4.80;1.17;;;19.20;59.20;;;;;;5069050;28;20129;-75
2022/10/03 10:10:40;;;;;;;6.57;1.10;;;19.20;59.30;;;;;;5068547;28;20039;-74
2022/10/03 10:13:28;;;;;;;5.40;1.00;;;19.20;59.30;;;;;;5069552;28;20041;-75
2022/10/03 10:15:56;;;;;;;6.80;1.23;;;19.30;59.30;;;;;;5052867;28;20041;-74
2022/10/03 10:18:53;;;;;;;6.70;1.40;;;19.30;59.10;;;;;;5051431;28;20068;-74
2022/10/03 10:21:28;;;;;;;5.47;1.20;;;19.30;58.70;;;;;;5068594;28;20036;-74
2022/10/03 10:24:22;;;;;;;4.00;1.50;;;19.40;58.40;;;;;;5053561;28;20225;-74
2022/10/03 10:27:12;;;;;;;5.68;1.30;;;19.40;58.30;;;;;;5052970;28;20044;-74
2022/10/03 10:30:05;;;;;;;5.50;1.23;;;19.40;58.10;;;;;;5068379;28;20040;-74
2022/10/03 10:33:09;;;;;;;8.07;1.35;;;19.50;57.60;;;;;;5067902;28;20048;-75
2022/10/03 10:36:12;;;;;;;7.72;1.52;;;19.50;57.70;;;;;;5086370;28;20476;-74
2022/10/03 10:38:58;;;;;;;7.20;1.65;;;19.50;57.40;;;;;;5069220;28;20043;-75
2022/10/03 10:42:11;;;;;;;4.25;1.17;;;19.50;57.60;;;;;;5072223;28;20411;-74
2022/10/03 10:44:46;;;;;;;7.68;1.83;;;19.50;57.60;;;;;;5041618;28;20078;-75
2022/10/03 10:47:47;;;;;;;6.05;1.15;;;19.50;57.30;;;;;;5068505;28;20048;-75
2022/10/03 10:50:28;;;;;;;4.88;1.27;;;19.50;57.10;;;;;;5067977;28;20055;-75
2022/10/03 10:53:36;;;;;;;4.97;1.20;;;19.50;57.50;;;;;;5068561;28;20036;-75
2022/10/03 10:56:41;;;;;;;5.80;1.38;;;19.60;57.60;;;;;;5067431;28;20499;-75
2022/10/03 10:59:28;;;;;;;4.78;1.40;;;19.60;58.00;;;;;;5067677;28;20088;-75
2022/10/03 11:02:15;;;;;;;6.15;1.50;;;19.70;57.20;;;;;;5084504;28;20105;-71
2022/10/03 11:05:08;;;;;;;3.20;0.90;;;19.60;56.90;;;;;;5068900;28;20036;-70
2022/10/03 11:07:46;;;;;;;7.30;1.30;;;19.70;56.90;;;;;;5068352;28;20552;-70
2022/10/03 11:10:34;;;;;;;5.10;1.20;;;19.70;56.60;;;;;;5068564;28;20369;-71
2022/10/03 11:13:19;;;;;;;4.43;1.15;;;19.70;56.60;;;;;;5067688;28;20086;-70
2022/10/03 11:16:12;;;;;;;4.57;1.00;;;19.70;56.50;;;;;;5067864;28;20071;-70
2022/10/03 11:19:19;;;;;;;7.88;1.30;;;19.70;56.70;;;;;;5067111;28;20032;-71
2022/10/03 11:22:11;;;;;;;5.47;1.30;;;19.60;57.10;;;;;;4991782;28;20038;-70
2022/10/03 11:25:25;;;;;;;5.85;1.05;;;19.70;56.80;;;;;;5067363;28;20048;-70
2022/10/03 11:27:54;;;;;;;7.00;1.73;;;19.70;56.80;;;;;;5063419;28;20066;-70
2022/10/03 11:30:23;;;;;;;6.80;1.23;;;19.70;56.70;;;;;;5087834;28;20402;-70
2022/10/03 11:33:20;;;;;;;7.68;1.20;;;19.70;56.50;;;;;;5071450;28;20089;-71
2022/10/03 11:36:02;;;;;;;7.45;1.50;;;19.70;56.70;;;;;;5088198;28;20048;-70
2022/10/03 11:38:32;;;;;;;4.78;1.30;;;19.70;56.60;;;;;;5087836;28;20048;-71
2022/10/03 11:41:13;;;;;;;5.60;1.00;;;19.70;56.70;;;;;;5071066;28;20044;-71
2022/10/03 11:43:56;;;;;;;5.95;1.23;;;19.70;56.60;;;;;;5088026;28;20040;-71
2022/10/03 11:46:56;;;;;;;3.47;1.20;;;19.70;56.30;;;;;;5088106;28;20615;-71
2022/10/03 11:49:49;;;;;;;6.97;1.10;;;19.70;55.80;;;;;;5087262;28;20373;-71
2022/10/03 11:52:53;;;;;;;4.53;1.23;;;19.80;55.00;;;;;;5071216;28;20516;-70
2022/10/03 11:55:34;;;;;;;4.30;0.83;;;19.70;55.40;;;;;;5059459;28;20556;-70
2022/10/03 11:58:35;;;;;;;4.78;1.02;;;19.80;56.00;;;;;;5089821;28;20036;-70
2022/10/03 12:01:24;;;;;;;5.75;1.15;;;19.80;56.00;;;;;;5086709;28;20480;-71
2022/10/03 12:04:17;;;;;;;3.13;0.80;;;19.80;55.60;;;;;;5085691;28;20047;-71
2022/10/03 12:10:14;;;;;;;3.75;0.82;;;19.80;55.20;;;;;;5086663;28;20070;-70
2022/10/03 12:12:49;;;;;;;6.50;0.90;;;19.80;55.10;;;;;;5070271;28;20059;-70
2022/10/03 12:15:14;;;;;;;5.50;1.27;;;19.80;55.60;;;;;;5087000;28;20510;-70
2022/10/03 12:17:49;;;;;;;4.45;1.00;;;19.80;55.30;;;;;;5070030;28;20040;-70
2022/10/03 12:20:23;;;;;;;3.90;0.82;;;19.80;54.90;;;;;;5087578;28;20047;-70
2022/10/03 12:23:07;;;;;;;8.70;1.45;;;19.70;55.30;;;;;;5087630;28;20050;-70
2022/10/03 12:25:39;;;;;;;4.05;1.20;;;19.80;55.70;;;;;;5086490;28;20040;-70
2022/10/03 12:28:22;;;;;;;3.72;1.10;;;19.80;56.00;;;;;;5066386;28;20450;-70
2022/10/03 12:30:55;;;;;;;4.47;1.00;;;19.80;56.20;;;;;;5067087;28;20040;-70
2022/10/03 12:33:47;;;;;;;5.00;1.13;;;19.80;55.80;;;;;;5086004;28;20036;-70
2022/10/03 12:36:47;;;;;;;6.30;1.10;;;19.80;56.20;;;;;;5079845;28;20051;-70
2022/10/03 12:39:36;;;;;;;7.20;1.45;;;19.70;56.30;;;;;;5061198;28;20044;-70
2022/10/03 12:42:17;;;;;;;2.80;1.00;;;19.70;56.20;;;;;;5077630;28;20036;-70
2022/10/03 12:45:02;;;;;;;6.80;1.75;;;19.70;56.20;;;;;;5082413;28;20044;-70
2022/10/03 12:48:01;;;;;;;5.30;1.05;;;19.70;55.90;;;;;;5081991;28;20032;-70
2022/10/03 12:50:42;;;;;;;5.93;1.30;;;19.70;56.00;;;;;;5089693;28;20502;-70
2022/10/03 12:53:16;;;;;;;5.57;1.25;;;19.70;56.30;;;;;;5082757;28;20460;-70
2022/10/03 12:56:14;;;;;;;5.13;0.95;;;19.70;56.20;;;;;;5068385;28;20071;-70
2022/10/03 12:58:49;;;;;;;4.50;1.00;;;19.70;55.80;;;;;;5075734;28;20048;-70
2022/10/03 13:01:41;;;;;;;2.95;0.90;;;19.70;55.60;;;;;;5084344;28;20054;-70
2022/10/03 13:04:37;;;;;;;3.60;0.60;;;19.70;55.60;;;;;;5064114;28;20070;-70
2022/10/03 13:07:11;;;;;;;5.80;1.30;;;19.70;55.50;;;;;;5080085;28;20075;-70
2022/10/03 13:09:40;;;;;;;3.60;0.95;;;19.70;55.70;;;;;;5083965;28;20048;-70
2022/10/03 13:12:24;;;;;;;4.70;1.10;;;19.60;55.10;;;;;;5086984;28;20040;-70
2022/10/03 13:15:18;;;;;;;4.65;1.30;;;19.60;55.00;;;;;;5083892;28;20052;-71
2022/10/03 13:18:02;;;;;;;4.43;1.00;;;19.60;54.60;;;;;;5086977;28;20131;-70
2022/10/03 13:20:36;;;;;;;6.32;1.08;;;19.50;54.60;;;;;;5085504;28;20047;-70
2022/10/03 13:23:17;;;;;;;4.00;0.80;;;19.50;54.70;;;;;;5086783;28;20036;-70
2022/10/03 13:26:00;;;;;;;4.15;1.05;;;19.50;54.70;;;;;;5070161;28;20040;-70
2022/10/03 13:28:35;;;;;;;3.78;1.35;;;19.40;54.80;;;;;;5082910;28;20590;-70
2022/10/03 13:31:26;;;;;;;5.70;1.20;;;19.40;54.80;;;;;;5085169;28;20043;-70
2022/10/03 13:33:55;;;;;;;4.65;0.90;;;19.40;54.60;;;;;;5079493;28;20049;-70
2022/10/03 13:36:27;;;;;;;5.32;1.20;;;19.30;54.40;;;;;;5064295;28;20036;-70
2022/10/03 13:39:04;;;;;;;4.00;0.80;;;19.30;54.50;;;;;;5083344;28;20043;-70
2022/10/03 13:41:38;;;;;;;3.80;0.90;;;19.30;54.70;;;;;;5085330;28;20054;-70
2022/10/03 13:44:22;;;;;;;6.18;1.48;;;19.30;55.10;;;;;;5086173;28;20044;-70
2022/10/03 13:47:12;;;;;;;5.28;1.27;;;19.30;55.40;;;;;;5085014;28;20052;-70
2022/10/03 13:49:51;;;;;;;4.35;0.93;;;19.30;55.40;;;;;;5086087;28;20483;-69
2022/10/03 13:52:24;;;;;;;5.60;1.27;;;19.30;55.30;;;;;;5076158;28;20413;-71
2022/10/03 13:55:25;;;;;;;6.80;1.40;;;19.20;55.20;;;;;;5075945;28;20032;-71
2022/10/03 13:57:57;;;;;;;4.00;1.15;;;19.20;55.40;;;;;;5084907;28;20048;-71
2022/10/03 14:00:26;;;;;;;5.82;1.30;;;19.20;55.60;;;;;;5065545;28;20036;-71
2022/10/03 14:03:34;;;;;;;3.67;1.10;;;19.20;55.20;;;;;;5087727;28;20086;-71
2022/10/03 14:06:15;;;;;;;4.88;1.27;;;19.10;55.10;;;;;;5012305;28;20149;-71
2022/10/03 14:08:54;;;;;;;5.22;1.25;;;19.20;55.10;;;;;;5070782;28;20496;-71
2022/10/03 14:11:44;;;;;;;5.30;1.23;;;19.10;55.10;;;;;;5066351;28;20036;-71
2022/10/03 14:14:23;;;;;;;5.60;1.00;;;19.10;54.70;;;;;;5085936;28;20055;-71
2022/10/03 14:16:52;;;;;;;3.83;1.13;;;19.10;54.80;;;;;;5089395;28;20181;-72
2022/10/03 14:19:42;;;;;;;4.32;0.95;;;19.00;55.00;;;;;;5086839;28;20044;-70
2022/10/03 14:22:26;;;;;;;2.72;0.70;;;19.10;54.90;;;;;;5069386;28;20067;-70
2022/10/03 14:25:11;;;;;;;;;;;19.00;55.10;;;;;;5072883;28;20040;-70
2022/10/03 14:27:51;;;;;;;5.13;1.00;;;19.00;55.30;;;;;;5087789;28;20413;-70
2022/10/03 14:30:30;;;;;;;5.68;1.70;;;19.00;55.00;;;;;;5077372;28;20047;-70
2022/10/03 14:33:19;;;;;;;6.97;1.60;;;18.90;54.80;;;;;;5087798;28;20422;-70
2022/10/03 14:36:11;;;;;;;3.25;0.95;;;19.00;54.90;;;;;;5079617;28;20036;-70
2022/10/03 14:38:59;;;;;;;4.10;0.80;;;18.90;55.10;;;;;;5071895;28;20544;-71